Terminal Aerodrome Forecast
Issued by NWS

Home | Current Version | Previous Version | Text Only | Print | Product List | Glossary On
Versions: 1 2 3 4 5 6 7 8 9 10 11 12 13 14 15 16 17 18 19 20 21 22 23 24 25 26 27 28 29 30 31
000
FTUS43 KDVN 291409 AAA
TAFCID
TAF AMD
KCID 291409Z 2914/3012 33004KT 2SM BR OVC004
      TEMPO 2915/2917 3SM BR OVC007
     FM291800 04006KT P6SM BKN015
     FM292100 07006KT P6SM SCT040
     FM300800 07003KT 2SM BR FEW100=

USA.gov is the U.S. government's official web portal to all federal, state and local government web resources and services.